Time;durP1;ratioP1;P1;durP2;ratioP2;P2;SDS_P1;SDS_P2;PMS_P1;PMS_P2;Temp;Humidity;BMP_temperature;BMP_pressure;BME280_temperature;BME280_humidity;BME280_pressure;Samples;Min_cycle;Max_cycle;Signal;HPM_P1;HPM_P2
2021/12/08 00:01:35;;;;;;;;;78.67;58.67;;;;;-146.39;100.00;62182.44;6313846;20;3635660;-46
2021/12/08 00:04:05;;;;;;;;;79.00;60.50;;;;;-146.39;100.00;62182.44;6311913;20;2872176;-46
2021/12/08 00:06:34;;;;;;;;;85.00;62.67;;;;;-146.39;100.00;62182.44;6283324;20;3651339;-46
2021/12/08 00:14:41;;;;;;;;;76.00;59.00;;;;;-146.39;100.00;62182.44;6314656;20;2861729;-45
2021/12/08 00:17:10;;;;;;;;;81.00;58.33;;;;;-146.39;100.00;62182.44;6283206;20;2897225;-45
2021/12/08 00:19:40;;;;;;;;;86.00;61.67;;;;;-146.39;100.00;62182.44;6312112;20;3665341;-45
2021/12/08 00:22:10;;;;;;;;;77.33;56.33;;;;;-146.39;100.00;62182.44;6313565;20;3652418;-50
2021/12/08 00:24:40;;;;;;;;;86.00;60.00;;;;;-146.39;100.00;62182.44;6314321;20;3655422;-47
2021/12/08 00:27:11;;;;;;;;;87.33;62.00;;;;;-146.39;100.00;62182.44;6311075;20;3656463;-47
2021/12/08 00:29:40;;;;;;;;;81.00;59.00;;;;;-146.39;100.00;62182.44;6312308;20;3650213;-45
2021/12/08 00:32:10;;;;;;;;;79.67;59.67;;;;;-146.39;100.00;62182.44;6312186;20;3651244;-46
2021/12/08 00:34:39;;;;;;;;;79.50;58.50;;;;;-146.39;100.00;62182.44;6314872;20;2607568;-46
2021/12/08 00:37:10;;;;;;;;;78.33;58.00;;;;;-146.39;100.00;62182.44;6310630;20;2894136;-45
2021/12/08 00:39:40;;;;;;;;;77.33;58.67;;;;;-146.39;100.00;62182.44;6312316;20;3647135;-48
2021/12/08 00:42:10;;;;;;;;;80.33;60.00;;;;;-146.39;100.00;62182.44;6313620;20;2887967;-46
2021/12/08 00:44:38;;;;;;;;;79.00;58.00;;;;;-146.39;100.00;62182.44;6308477;20;2500246;-48
2021/12/08 00:47:08;;;;;;;;;73.00;56.00;;;;;-146.39;100.00;62182.44;6281167;20;2874645;-45
2021/12/08 00:49:39;;;;;;;;;74.33;56.33;;;;;-146.39;100.00;62182.44;6308987;20;2888946;-47
2021/12/08 00:52:09;;;;;;;;;82.33;60.00;;;;;-146.39;100.00;62182.44;6313036;20;3658887;-47
2021/12/08 00:54:38;;;;;;;;;79.67;58.67;;;;;-146.39;100.00;62182.44;6315538;20;3641898;-46
2021/12/08 00:57:10;;;;;;;;;82.33;61.00;;;;;-146.39;100.00;62182.44;6313319;20;3649168;-50
2021/12/08 00:59:39;;;;;;;;;76.50;56.00;;;;;-146.39;100.00;62182.44;6307908;20;2500295;-46
2021/12/08 01:02:27;;;;;;;;;82.33;57.00;;;;;-146.39;100.00;62182.44;6283451;20;3648136;-46
2021/12/08 01:04:57;;;;;;;;;74.00;56.50;;;;;-146.39;100.00;62182.44;6312716;20;2882679;-45
2021/12/08 01:07:26;;;;;;;;;78.67;59.33;;;;;-146.39;100.00;62182.44;6278226;20;2889854;-47
2021/12/08 01:09:56;;;;;;;;;83.67;58.00;;;;;-146.39;100.00;62182.44;6311026;20;3655453;-45
2021/12/08 01:12:25;;;;;;;;;83.00;60.33;;;;;-146.39;100.00;62182.44;6312376;20;3640872;-45
2021/12/08 01:14:55;;;;;;;;;79.67;57.33;;;;;-146.39;100.00;62182.44;6312738;20;3659719;-48
2021/12/08 01:17:25;;;;;;;;;86.33;58.67;;;;;-146.39;100.00;62182.44;6312477;20;2892053;-46
2021/12/08 01:19:54;;;;;;;;;81.67;58.33;;;;;-146.39;100.00;62182.44;6310938;20;2892063;-46
2021/12/08 01:22:24;;;;;;;;;82.00;63.67;;;;;-146.39;100.00;62182.44;6310549;20;2889896;-44
2021/12/08 01:24:53;;;;;;;;;82.67;60.67;;;;;-146.39;100.00;62182.44;6312290;20;2886759;-47
2021/12/08 01:27:23;;;;;;;;;79.33;59.67;;;;;-146.39;100.00;62182.44;6309868;20;3651403;-48
2021/12/08 01:29:53;;;;;;;;;77.00;51.33;;;;;-146.39;100.00;62182.44;6310597;20;3647126;-47
2021/12/08 01:32:23;;;;;;;;;84.67;60.67;;;;;-146.39;100.00;62182.44;6313253;20;2882532;-45
2021/12/08 01:34:53;;;;;;;;;76.00;59.00;;;;;-146.39;100.00;62182.44;6313520;20;2869149;-47
2021/12/08 01:37:22;;;;;;;;;81.67;60.00;;;;;-146.39;100.00;62182.44;6279464;20;2890946;-47
2021/12/08 01:39:52;;;;;;;;;84.00;63.33;;;;;-146.39;100.00;62182.44;6310382;20;2904543;-46
2021/12/08 01:42:34;;;;;;;;;78.33;54.33;;;;;-146.39;100.00;62182.44;6310709;20;2885792;-46
2021/12/08 01:47:56;;;;;;;;;87.00;64.00;;;;;-146.39;100.00;62182.44;6307550;20;2889611;-44
2021/12/08 01:50:26;;;;;;;;;79.00;61.00;;;;;-146.39;100.00;62182.44;6312451;20;2880579;-44
2021/12/08 01:52:56;;;;;;;;;85.67;59.00;;;;;-146.39;100.00;62182.44;6310837;20;3652366;-44
2021/12/08 01:55:26;;;;;;;;;83.33;61.67;;;;;-146.39;100.00;62182.44;6307493;20;2897230;-45
2021/12/08 01:57:55;;;;;;;;;85.00;61.67;;;;;-146.39;100.00;62182.44;6311406;20;3649175;-44
2021/12/08 02:00:38;;;;;;;;;79.33;58.00;;;;;-146.39;100.00;62182.44;6310654;20;2900504;-46
2021/12/08 02:03:08;;;;;;;;;69.50;56.00;;;;;-146.39;100.00;62182.44;6317381;20;2863879;-45
2021/12/08 02:05:39;;;;;;;;;83.33;57.33;;;;;-146.39;100.00;62182.44;6285032;20;2892118;-44
2021/12/08 02:08:08;;;;;;;;;72.00;56.00;;;;;-146.39;100.00;62182.44;6315668;20;2885715;-47
2021/12/08 02:10:40;;;;;;;;;85.67;63.00;;;;;-146.39;100.00;62182.44;6282843;20;2886798;-46
2021/12/08 02:13:11;;;;;;;;;86.33;64.67;;;;;-146.39;100.00;62182.44;6317471;20;2900373;-44
2021/12/08 02:15:40;;;;;;;;;79.50;57.50;;;;;-146.39;100.00;62182.44;6316911;20;2886752;-45
2021/12/08 02:18:15;;;;;;;;;83.67;59.33;;;;;-146.39;100.00;62182.44;6284276;20;2898653;-45
2021/12/08 02:20:49;;;;;;;;;87.00;60.00;;;;;-146.39;100.00;62182.44;6316684;20;2894157;-45
2021/12/08 02:23:20;;;;;;;;;78.50;61.50;;;;;-146.39;100.00;62182.44;6284494;20;2887747;-43
2021/12/08 02:25:49;;;;;;;;;80.00;61.50;;;;;-146.39;100.00;62182.44;6279646;20;2500282;-44
2021/12/08 02:28:19;;;;;;;;;83.67;60.67;;;;;-146.39;100.00;62182.44;6283457;20;2898278;-46
2021/12/08 02:30:55;;;;;;;;;89.67;60.00;;;;;-146.39;100.00;62182.44;6316828;20;3666875;-44
2021/12/08 02:49:51;;;;;;;;;80.50;63.00;;;;;-146.39;100.00;62182.44;6282354;20;2876453;-46
2021/12/08 02:52:22;;;;;;;;;79.00;58.00;;;;;-146.39;100.00;62182.44;6283150;20;3657524;-45
2021/12/08 02:54:53;;;;;;;;;85.00;57.67;;;;;-146.39;100.00;62182.44;6315903;20;2900374;-45
2021/12/08 02:57:27;;;;;;;;;87.00;61.50;;;;;-146.39;100.00;62182.44;6313748;20;3534616;-46
2021/12/08 02:59:55;;;;;;;;;77.00;61.00;;;;;-146.39;100.00;62182.44;6309581;20;2500278;-45
2021/12/08 03:02:25;;;;;;;;;87.33;62.00;;;;;-146.39;100.00;62182.44;6281594;20;3656516;-45
2021/12/08 03:04:55;;;;;;;;;87.67;61.67;;;;;-146.39;100.00;62182.44;6314651;20;3655469;-47
2021/12/08 03:07:25;;;;;;;;;90.00;65.33;;;;;-146.39;100.00;62182.44;6312022;20;3648171;-46
2021/12/08 03:09:54;;;;;;;;;81.33;61.00;;;;;-146.39;100.00;62182.44;6313333;20;2891966;-46
2021/12/08 03:12:30;;;;;;;;;87.00;63.00;;;;;-146.39;100.00;62182.44;6311087;20;3659672;-46
2021/12/08 03:14:59;;;;;;;;;86.67;63.33;;;;;-146.39;100.00;62182.44;6313478;20;3654386;-45
2021/12/08 03:17:29;;;;;;;;;90.67;59.67;;;;;-146.39;100.00;62182.44;6314125;20;3663891;-47
2021/12/08 03:19:57;;;;;;;;;81.00;57.00;;;;;-146.39;100.00;62182.44;6311825;20;2878489;-47
2021/12/08 03:22:25;;;;;;;;;81.00;62.00;;;;;-146.39;100.00;62182.44;6280036;20;2500720;-47
2021/12/08 03:24:55;;;;;;;;;82.00;57.00;;;;;-146.39;100.00;62182.44;6283150;20;2893174;-45
2021/12/08 03:27:31;;;;;;;;;78.00;56.50;;;;;-146.39;100.00;62182.44;6312197;20;2874359;-45
2021/12/08 03:30:13;;;;;;;;;81.50;55.50;;;;;-146.39;100.00;62182.44;6278534;20;2499278;-44
2021/12/08 03:32:42;;;;;;;;;85.00;58.00;;;;;-146.39;100.00;62182.44;6284519;20;2758577;-46
2021/12/08 03:35:17;;;;;;;;;78.00;60.00;;;;;-146.39;100.00;62182.44;6310125;20;2500350;-45
2021/12/08 03:37:47;;;;;;;;;64.00;46.00;;;;;-146.39;100.00;62182.44;6281968;20;2875427;-46
2021/12/08 03:40:24;;;;;;;;;72.00;54.00;;;;;-146.39;100.00;62182.44;6278439;20;2500290;-45
2021/12/08 03:42:56;;;;;;;;;65.00;55.00;;;;;-146.39;100.00;62182.44;6277159;20;2498164;-44
2021/12/08 03:45:44;;;;;;;;;76.00;59.00;;;;;-146.39;100.00;62182.44;6279745;20;2499219;-45
2021/12/08 03:48:28;;;;;;;;;95.00;67.00;;;;;-146.39;100.00;62182.44;6281271;20;3661711;-46
2021/12/08 03:50:59;;;;;;;;;101.33;66.33;;;;;-146.39;100.00;62182.44;6315577;20;3673293;-46
2021/12/08 03:53:29;;;;;;;;;89.33;67.00;;;;;-146.39;100.00;62182.44;6281420;20;2899305;-46
2021/12/08 03:55:58;;;;;;;;;91.67;66.00;;;;;-146.39;100.00;62182.44;6312205;20;3657525;-45
2021/12/08 03:58:28;;;;;;;;;90.00;61.33;;;;;-146.39;100.00;62182.44;6312653;20;2898333;-45
2021/12/08 04:00:59;;;;;;;;;83.33;63.67;;;;;-146.39;100.00;62182.44;6314714;20;2887850;-45
2021/12/08 04:03:32;;;;;;;;;89.00;62.67;;;;;-146.39;100.00;62182.44;6315039;20;3655452;-47
2021/12/08 04:06:15;;;;;;;;;87.00;63.00;;;;;-146.39;100.00;62182.44;6314026;20;2906768;-47
2021/12/08 04:08:53;;;;;;;;;83.00;63.00;;;;;-146.39;100.00;62182.44;6310843;20;2783650;-44
2021/12/08 04:11:22;;;;;;;;;86.00;65.50;;;;;-146.39;100.00;62182.44;6282371;20;2890870;-45
2021/12/08 04:14:08;;;;;;;;;84.67;64.00;;;;;-146.39;100.00;62182.44;6281003;20;2884331;-45
2021/12/08 04:16:50;;;;;;;;;82.00;56.00;;;;;-146.39;100.00;62182.44;6312503;20;2836712;-45
2021/12/08 04:19:21;;;;;;;;;81.50;57.00;;;;;-146.39;100.00;62182.44;6280458;20;2881547;-45
2021/12/08 04:21:54;;;;;;;;;75.00;54.50;;;;;-146.39;100.00;62182.44;6279914;20;2866912;-44
2021/12/08 04:24:27;;;;;;;;;83.00;62.00;;;;;-146.39;100.00;62182.44;6279640;20;2887857;-45
2021/12/08 04:27:10;;;;;;;;;88.67;63.00;;;;;-146.39;100.00;62182.44;6281510;20;3659633;-45
2021/12/08 04:29:43;;;;;;;;;78.00;60.00;;;;;-146.39;100.00;62182.44;6309567;20;2500262;-46
2021/12/08 04:32:16;;;;;;;;;77.33;58.67;;;;;-146.39;100.00;62182.44;6281373;20;2883592;-45
2021/12/08 04:34:54;;;;;;;;;127.33;96.33;;;;;-146.39;100.00;62182.44;6314652;20;3698186;-45
2021/12/08 04:37:34;;;;;;;;;94.00;70.00;;;;;-146.39;100.00;62182.44;6282037;20;2902478;-45
2021/12/08 04:40:43;;;;;;;;;99.33;68.00;;;;;-146.39;100.00;62182.44;6312920;20;3667988;-45
2021/12/08 04:43:32;;;;;;;;;89.00;62.67;;;;;-146.39;100.00;62182.44;6315016;20;3655162;-46
2021/12/08 05:04:12;;;;;;;;;97.00;67.00;;;;;-146.39;100.00;62182.44;6281824;20;3666931;-46
2021/12/08 05:07:02;;;;;;;;;104.00;72.67;;;;;-146.39;100.00;62182.44;6314370;20;3656463;-45
2021/12/08 05:09:37;;;;;;;;;97.33;67.00;;;;;-146.39;100.00;62182.44;6311565;20;3659803;-45
2021/12/08 05:12:26;;;;;;;;;98.33;70.00;;;;;-146.39;100.00;62182.44;6311605;20;3659712;-44
2021/12/08 05:15:08;;;;;;;;;94.00;67.33;;;;;-146.39;100.00;62182.44;6313042;20;3657550;-45
2021/12/08 05:17:59;;;;;;;;;95.33;68.67;;;;;-146.39;100.00;62182.44;6313188;20;3657553;-45
2021/12/08 05:20:47;;;;;;;;;82.67;60.67;;;;;-146.39;100.00;62182.44;6310347;20;2890876;-46
2021/12/08 05:23:49;;;;;;;;;84.33;64.67;;;;;-146.39;100.00;62182.44;6314762;20;2880547;-45
2021/12/08 05:26:39;;;;;;;;;86.00;61.00;;;;;-146.39;100.00;62182.44;6309710;20;2502589;-46
2021/12/08 05:29:20;;;;;;;;;90.33;67.00;;;;;-146.39;100.00;62182.44;6279521;20;3667930;-46
2021/12/08 05:31:51;;;;;;;;;95.33;70.33;;;;;-146.39;100.00;62182.44;6312001;20;2908698;-45
2021/12/08 05:34:21;;;;;;;;;103.00;75.67;;;;;-146.39;100.00;62182.44;6312250;20;3673150;-46
2021/12/08 05:36:54;;;;;;;;;104.00;75.00;;;;;-146.39;100.00;62182.44;6310982;20;3660837;-47
2021/12/08 05:39:29;;;;;;;;;100.67;71.67;;;;;-146.39;100.00;62182.44;6311703;20;3670000;-45
2021/12/08 05:42:16;;;;;;;;;100.67;73.67;;;;;-146.39;100.00;62182.44;6309716;20;3674170;-47
2021/12/08 05:44:46;;;;;;;;;94.33;67.00;;;;;-146.39;100.00;62182.44;6307880;20;2905626;-45
2021/12/08 05:47:24;;;;;;;;;101.33;70.00;;;;;-146.39;100.00;62182.44;6310509;20;3676286;-46
2021/12/08 05:49:55;;;;;;;;;87.00;66.67;;;;;-146.39;100.00;62182.44;6311481;20;2902385;-45
2021/12/08 05:52:26;;;;;;;;;98.67;72.00;;;;;-146.39;100.00;62182.44;6309388;20;3655491;-45
2021/12/08 05:55:03;;;;;;;;;93.00;69.33;;;;;-146.39;100.00;62182.44;6313583;20;2882534;-45
2021/12/08 05:57:42;;;;;;;;;94.67;69.33;;;;;-146.39;100.00;62182.44;6312660;20;2898309;-48
2021/12/08 06:00:36;;;;;;;;;98.33;72.00;;;;;-146.39;100.00;62182.44;6308258;20;3663783;-46
2021/12/08 06:03:10;;;;;;;;;93.00;66.00;;;;;-146.39;100.00;62182.44;6313868;20;2781607;-45
2021/12/08 06:05:44;;;;;;;;;81.83;58.67;;;;;-146.39;100.00;62182.44;6331426;20;3646060;-49
2021/12/08 06:08:14;;;;;;;;;84.67;66.33;;;;;-146.39;100.00;62182.44;6276944;20;2880612;-44
2021/12/08 06:10:45;;;;;;;;;95.33;66.00;;;;;-146.39;100.00;62182.44;6310781;20;3661389;-45
2021/12/08 06:13:17;;;;;;;;;83.50;63.50;;;;;-146.39;100.00;62182.44;6310917;20;2884607;-45
2021/12/08 06:15:49;;;;;;;;;81.50;57.00;;;;;-146.39;100.00;62182.44;6280174;20;2878406;-46
2021/12/08 06:18:24;;;;;;;;;84.67;63.00;;;;;-146.39;100.00;62182.44;6278379;20;2897303;-46
2021/12/08 06:20:58;;;;;;;;;76.50;60.50;;;;;-146.39;100.00;62182.44;6308636;20;2500273;-45
2021/12/08 06:23:27;;;;;;;;;80.50;60.50;;;;;-146.39;100.00;62182.44;6272838;20;2500278;-45
2021/12/08 06:25:55;;;;;;;;;78.50;58.00;;;;;-146.39;100.00;62182.44;6274907;20;2500382;-45
2021/12/08 06:28:23;;;;;;;;;80.50;61.00;;;;;-146.39;100.00;62182.44;6273174;20;2500240;-45
2021/12/08 06:30:54;;;;;;;;;77.33;57.00;;;;;-146.39;100.00;62182.44;6276948;20;2895070;-45
2021/12/08 06:33:26;;;;;;;;;89.00;63.33;;;;;-146.39;100.00;62182.44;6310937;20;3659731;-45
2021/12/08 06:36:26;;;;;;;;;96.67;68.33;;;;;-146.39;100.00;62182.44;6309200;20;2893039;-46
2021/12/08 06:38:56;;;;;;;;;89.00;68.00;;;;;-146.39;100.00;62182.44;6306507;20;2500280;-47
2021/12/08 06:41:42;;;;;;;;;94.33;66.00;;;;;-146.39;100.00;62182.44;6277636;20;3666975;-46
2021/12/08 06:44:26;;;;;;;;;121.67;97.33;;;;;-146.39;100.00;62182.44;6309531;20;3708553;-45
2021/12/08 06:47:02;;;;;;;;;146.00;121.33;;;;;-146.39;100.00;62182.44;6277617;20;3718074;-45
2021/12/08 06:49:32;;;;;;;;;136.33;111.67;;;;;-146.39;100.00;62182.44;6283433;20;3714901;-47
2021/12/08 06:52:19;;;;;;;;;109.33;79.67;;;;;-146.39;100.00;62182.44;6283009;20;3681562;-46
2021/12/08 06:55:44;;;;;;;;;106.33;78.00;;;;;-146.39;100.00;62182.44;6312495;20;3679398;-45
2021/12/08 06:58:24;;;;;;;;;115.00;90.67;;;;;-146.39;100.00;62182.44;6312719;20;3693992;-46
2021/12/08 07:01:19;;;;;;;;;113.00;87.00;;;;;-146.39;100.00;62182.44;6281233;20;3697096;-46
2021/12/08 07:07:27;;;;;;;;;367.75;251.50;;;;;-146.39;100.00;62182.44;6282344;20;3754525;-47
2021/12/08 07:10:21;;;;;;;;;371.00;257.00;;;;;-146.39;100.00;62182.44;6310142;20;3737769;-45
2021/12/08 07:13:09;;;;;;;;;360.50;249.75;;;;;-146.39;100.00;62182.44;6315811;20;3743975;-44
2021/12/08 07:16:01;;;;;;;;;261.00;183.67;;;;;-146.39;100.00;62182.44;6280743;20;3697100;-44
2021/12/08 07:18:59;;;;;;;;;196.00;132.67;;;;;-146.39;100.00;62182.44;6283829;20;3713802;-45
2021/12/08 07:21:39;;;;;;;;;193.00;147.67;;;;;-146.39;100.00;62182.44;6281244;20;3715946;-45
2021/12/08 07:24:29;;;;;;;;;189.67;152.67;;;;;-146.39;100.00;62182.44;6281235;20;3725319;-46
2021/12/08 07:27:07;;;;;;;;;214.50;152.50;;;;;-146.39;100.00;62182.44;6281517;20;3731636;-44
2021/12/08 07:29:42;;;;;;;;;144.00;108.00;;;;;-146.39;100.00;62182.44;6277830;20;3706475;-46
2021/12/08 07:32:29;;;;;;;;;143.00;109.00;;;;;-146.39;100.00;62182.44;6283971;20;3716913;-45
2021/12/08 07:35:08;;;;;;;;;117.67;98.67;;;;;-146.39;100.00;62182.44;6284613;20;3686722;-44
2021/12/08 07:37:38;;;;;;;;;113.33;87.33;;;;;-146.39;100.00;62182.44;6282832;20;3691926;-47
2021/12/08 07:40:13;;;;;;;;;111.00;89.00;;;;;-146.39;100.00;62182.44;6281528;20;3689845;-45
2021/12/08 07:42:59;;;;;;;;;98.67;77.33;;;;;-146.39;100.00;62182.44;6280195;20;2898372;-44
2021/12/08 07:45:54;;;;;;;;;101.00;75.00;;;;;-146.39;100.00;62182.44;6316636;20;3651263;-47
2021/12/08 07:48:34;;;;;;;;;108.00;79.67;;;;;-146.39;100.00;62182.44;6315529;20;3684587;-46
2021/12/08 07:51:39;;;;;;;;;106.33;81.67;;;;;-146.39;100.00;62182.44;6282271;20;3677334;-49
2021/12/08 07:54:12;;;;;;;;;112.33;92.67;;;;;-146.39;100.00;62182.44;6280508;20;3704471;-45
2021/12/08 07:56:50;;;;;;;;;145.33;112.00;;;;;-146.39;100.00;62182.44;6282627;20;3717948;-45
2021/12/08 07:59:22;;;;;;;;;177.50;138.75;;;;;-146.39;100.00;62182.44;6280661;20;3720028;-45
2021/12/08 08:02:06;;;;;;;;;159.50;127.25;;;;;-146.39;100.00;62182.44;6282363;20;4496101;-46
2021/12/08 08:04:44;;;;;;;;;168.00;129.25;;;;;-146.39;100.00;62182.44;6283371;20;3728604;-47
2021/12/08 08:07:16;;;;;;;;;115.00;102.67;;;;;-146.39;100.00;62182.44;6314982;20;3695008;-46
2021/12/08 08:09:59;;;;;;;;;114.00;90.67;;;;;-146.39;100.00;62182.44;6282160;20;3709634;-45
2021/12/08 08:12:33;;;;;;;;;99.67;73.67;;;;;-146.39;100.00;62182.44;6282532;20;3645048;-46
2021/12/08 08:15:20;;;;;;;;;96.67;71.67;;;;;-146.39;100.00;62182.44;6312181;20;3662815;-45
2021/12/08 08:17:54;;;;;;;;;101.00;77.33;;;;;-146.39;100.00;62182.44;6315101;20;3660806;-45
2021/12/08 08:20:30;;;;;;;;;104.33;79.33;;;;;-146.39;100.00;62182.44;6314886;20;3682588;-45
2021/12/08 08:23:01;;;;;;;;;98.67;72.67;;;;;-146.39;100.00;62182.44;6282470;20;3661676;-48
2021/12/08 08:25:42;;;;;;;;;101.67;77.33;;;;;-146.39;100.00;62182.44;6314855;20;3668103;-44
2021/12/08 08:28:13;;;;;;;;;98.00;74.00;;;;;-146.39;100.00;62182.44;6311664;20;3664803;-45
2021/12/08 08:31:17;;;;;;;;;100.33;81.00;;;;;-146.39;100.00;62182.44;6311955;20;3665846;-45
2021/12/08 08:33:52;;;;;;;;;103.67;75.67;;;;;-146.39;100.00;62182.44;6312859;20;3664905;-46
2021/12/08 08:36:37;;;;;;;;;103.33;77.33;;;;;-146.39;100.00;62182.44;6314750;20;3672093;-47
2021/12/08 08:39:23;;;;;;;;;101.33;74.33;;;;;-146.39;100.00;62182.44;6279699;20;3673170;-45
2021/12/08 08:42:10;;;;;;;;;81.00;60.50;;;;;-146.39;100.00;62182.44;6313388;20;2889977;-47
2021/12/08 08:44:58;;;;;;;;;115.00;97.33;;;;;-146.39;100.00;62182.44;6283627;20;3690850;-45
2021/12/08 08:48:18;;;;;;;;;112.00;86.67;;;;;-146.39;100.00;62182.44;6281716;20;3695103;-48
2021/12/08 08:51:17;;;;;;;;;100.33;74.33;;;;;-146.39;100.00;62182.44;6281108;20;3666880;-45
2021/12/08 08:53:52;;;;;;;;;87.33;62.33;;;;;-146.39;100.00;62182.44;6281016;20;3663929;-47
2021/12/08 08:56:37;;;;;;;;;80.67;59.67;;;;;-146.39;100.00;62182.44;6310255;20;3634629;-45
2021/12/08 08:59:30;;;;;;;;;80.67;60.33;;;;;-146.39;100.00;62182.44;6312953;20;3649323;-46
2021/12/08 09:02:07;;;;;;;;;82.67;59.67;;;;;-146.39;100.00;62182.44;6313553;20;3650293;-45
2021/12/08 09:04:45;;;;;;;;;81.33;62.67;;;;;-146.39;100.00;62182.44;6313285;20;3628377;-48
2021/12/08 09:07:27;;;;;;;;;83.67;62.67;;;;;-146.39;100.00;62182.44;6313357;20;3654398;-47
2021/12/08 09:10:03;;;;;;;;;89.33;68.00;;;;;-146.39;100.00;62182.44;6310003;20;3634636;-48
2021/12/08 09:12:46;;;;;;;;;95.33;67.00;;;;;-146.39;100.00;62182.44;6308198;20;3651341;-45
2021/12/08 09:15:47;;;;;;;;;91.00;64.67;;;;;-146.39;100.00;62182.44;6280710;20;3666898;-45
2021/12/08 09:18:59;;;;;;;;;77.00;57.00;;;;;-146.39;100.00;62182.44;6312469;20;2880511;-45
2021/12/08 09:22:04;;;;;;;;;75.33;54.67;;;;;-146.39;100.00;62182.44;6312591;20;2880569;-45
2021/12/08 09:24:59;;;;;;;;;72.00;59.00;;;;;-146.39;100.00;62182.44;6314058;20;2865022;-45
2021/12/08 09:27:51;;;;;;;;;69.50;53.50;;;;;-146.39;100.00;62182.44;6278841;20;2866950;-47
2021/12/08 09:31:07;;;;;;;;;77.33;57.00;;;;;-146.39;100.00;62182.44;6281294;20;2879883;-45
2021/12/08 09:33:53;;;;;;;;;72.33;50.67;;;;;-146.39;100.00;62182.44;6309085;20;2873161;-47
2021/12/08 09:36:42;;;;;;;;;70.67;56.00;;;;;-146.39;100.00;62182.44;6313309;20;2878581;-46
2021/12/08 09:39:39;;;;;;;;;70.00;53.00;;;;;-146.39;100.00;62182.44;6307559;20;2439829;-47
2021/12/08 09:42:30;;;;;;;;;71.33;55.00;;;;;-146.39;100.00;62182.44;6276420;20;2867045;-46
2021/12/08 09:45:28;;;;;;;;;68.00;52.00;;;;;-146.39;100.00;62182.44;6312247;20;2869028;-46
2021/12/08 09:48:07;;;;;;;;;71.00;56.33;;;;;-146.39;100.00;62182.44;6280136;20;3610790;-46
2021/12/08 09:50:37;;;;;;;;;62.00;49.00;;;;;-146.39;100.00;62182.44;6311556;20;2868088;-45
2021/12/08 09:53:09;;;;;;;;;69.00;52.00;;;;;-146.39;100.00;62182.44;6278437;20;2876360;-45
2021/12/08 09:55:39;;;;;;;;;70.33;50.67;;;;;-146.39;100.00;62182.44;6313300;20;3636753;-46
2021/12/08 09:58:10;;;;;;;;;75.33;56.33;;;;;-146.39;100.00;62182.44;6310604;20;2877465;-45
2021/12/08 10:00:45;;;;;;;;;65.50;50.00;;;;;-146.39;100.00;62182.44;6313208;20;2874691;-45
2021/12/08 10:03:16;;;;;;;;;63.00;47.67;;;;;-146.39;100.00;62182.44;6280033;20;2869179;-47
2021/12/08 10:05:46;;;;;;;;;63.00;48.00;;;;;-146.39;100.00;62182.44;6310784;20;2861091;-46
2021/12/08 10:08:15;;;;;;;;;65.00;47.50;;;;;-146.39;100.00;62182.44;6279785;20;2872118;-47
2021/12/08 10:10:47;;;;;;;;;56.00;45.00;;;;;-146.39;100.00;62182.44;6281398;20;2846175;-46
2021/12/08 10:13:18;;;;;;;;;59.67;44.33;;;;;-146.39;100.00;62182.44;6278195;20;2875327;-45
2021/12/08 10:15:48;;;;;;;;;63.00;44.00;;;;;-146.39;100.00;62182.44;6307430;20;3639990;-49
2021/12/08 10:18:18;;;;;;;;;51.67;41.67;;;;;-146.39;100.00;62182.44;6308217;20;2875331;-45
2021/12/08 10:20:54;;;;;;;;;53.00;43.00;;;;;-146.39;100.00;62182.44;6311856;20;2861793;-48
2021/12/08 10:23:38;;;;;;;;;49.67;40.67;;;;;-146.39;100.00;62182.44;6285494;20;2867123;-48
2021/12/08 10:26:24;;;;;;;;;51.00;44.50;;;;;-146.39;100.00;62182.44;6317080;20;2836911;-48
2021/12/08 10:28:59;;;;;;;;;59.00;42.00;;;;;-146.39;100.00;62182.44;6284364;20;2867152;-46
2021/12/08 10:31:44;;;;;;;;;46.00;41.00;;;;;-146.39;100.00;62182.44;6316632;20;2856545;-45
2021/12/08 10:37:15;;;;;;;;;50.50;42.50;;;;;-146.39;100.00;62182.44;6283877;20;2861776;-48
2021/12/08 10:39:49;;;;;;;;;37.50;37.50;;;;;-146.39;100.00;62182.44;6282644;20;2860671;-47
2021/12/08 10:42:32;;;;;;;;;51.33;40.33;;;;;-146.39;100.00;62182.44;6285651;20;3627343;-46
2021/12/08 10:45:11;;;;;;;;;34.00;29.50;;;;;-146.39;100.00;62182.44;6314668;20;2862762;-46
2021/12/08 10:47:47;;;;;;;;;27.50;26.50;;;;;-146.39;100.00;62182.44;6285447;20;2845078;-45
2021/12/08 10:56:19;;;;;;;;;38.00;34.00;;;;;-146.39;100.00;62182.44;6283600;20;2854412;-46
2021/12/08 10:58:53;;;;;;;;;31.00;25.67;;;;;-146.39;100.00;62182.44;6282222;20;3587839;-45
2021/12/08 11:01:25;;;;;;;;;29.50;23.00;;;;;-146.39;100.00;62182.44;6282510;20;2500309;-45
2021/12/08 11:04:08;;;;;;;;;27.50;26.00;;;;;-146.39;100.00;62182.44;6288768;20;2841907;-45
2021/12/08 11:06:39;;;;;;;;;32.00;28.00;;;;;-146.39;100.00;62182.44;6285471;20;2854450;-55
2021/12/08 11:09:21;;;;;;;;;33.00;24.50;;;;;-146.39;100.00;62182.44;6281913;20;2500297;-47
2021/12/08 11:11:51;;;;;;;;;27.50;22.00;;;;;-146.39;100.00;62182.44;6285357;20;2842070;-49
2021/12/08 11:14:20;;;;;;;;;42.50;35.00;;;;;-146.39;100.00;62182.44;6285527;20;2858571;-49
2021/12/08 11:16:48;;;;;;;;;35.50;30.00;;;;;-146.39;100.00;62182.44;6283251;20;2500398;-45
2021/12/08 11:19:24;;;;;;;;;44.50;38.00;;;;;-146.39;100.00;62182.44;6282862;20;2865943;-45
2021/12/08 11:21:58;;;;;;;;;50.00;37.33;;;;;-146.39;100.00;62182.44;6285841;20;3629388;-46
2021/12/08 11:24:48;;;;;;;;;40.67;31.33;;;;;-146.39;100.00;62182.44;6315421;20;2857546;-45
2021/12/08 11:27:36;;;;;;;;;47.33;36.00;;;;;-146.39;100.00;62182.44;6313333;20;3623195;-48
2021/12/08 11:30:16;;;;;;;;;51.00;39.67;;;;;-146.39;100.00;62182.44;6314883;20;3630518;-46
2021/12/08 11:32:46;;;;;;;;;54.67;38.00;;;;;-146.39;100.00;62182.44;6313833;20;3645084;-48
2021/12/08 11:35:21;;;;;;;;;47.33;39.33;;;;;-146.39;100.00;62182.44;6312531;20;2874191;-44
2021/12/08 11:38:02;;;;;;;;;44.33;40.67;;;;;-146.39;100.00;62182.44;6314835;20;3605629;-45
2021/12/08 11:40:37;;;;;;;;;42.50;38.00;;;;;-146.39;100.00;62182.44;6312066;20;2500281;-45
2021/12/08 11:43:13;;;;;;;;;56.00;39.00;;;;;-146.39;100.00;62182.44;6285120;20;2876378;-45
2021/12/08 11:45:43;;;;;;;;;42.00;36.00;;;;;-146.39;100.00;62182.44;6314773;20;2858703;-48
2021/12/08 11:48:27;;;;;;;;;45.67;39.00;;;;;-146.39;100.00;62182.44;6282313;20;3614821;-45
2021/12/08 11:51:15;;;;;;;;;64.00;43.50;;;;;-146.39;100.00;62182.44;6314929;20;2873257;-46
2021/12/08 11:53:45;;;;;;;;;59.00;42.33;;;;;-146.39;100.00;62182.44;6282645;20;3620004;-45
2021/12/08 11:56:38;;;;;;;;;51.50;40.00;;;;;-146.39;100.00;62182.44;6315111;20;2860684;-44
2021/12/08 11:59:11;;;;;;;;;67.50;52.00;;;;;-146.39;100.00;62182.44;6282788;20;2865862;-45
2021/12/08 12:01:40;;;;;;;;;53.00;43.00;;;;;-146.39;100.00;62182.44;6283217;20;2870093;-46
2021/12/08 12:04:11;;;;;;;;;63.00;47.00;;;;;-146.39;100.00;62182.44;6284246;20;2864257;-45
2021/12/08 12:06:40;;;;;;;;;54.50;44.00;;;;;-146.39;100.00;62182.44;6282400;20;2848300;-46
2021/12/08 12:09:10;;;;;;;;;58.00;46.00;;;;;-146.39;100.00;62182.44;6283966;20;2862819;-45
2021/12/08 12:11:53;;;;;;;;;55.00;43.00;;;;;-146.39;100.00;62182.44;6284328;20;2781556;-45
2021/12/08 12:14:23;;;;;;;;;46.50;42.00;;;;;-146.39;100.00;62182.44;6312839;20;2842965;-45
2021/12/08 12:16:51;;;;;;;;;53.00;44.50;;;;;-146.39;100.00;62182.44;6281538;20;2855436;-45